sensor_id;sensor_type;location;lat;lon;timestamp;P1;durP1;ratioP1;P2;durP2;ratioP2
8331;SDS011;4203;48.144;14.118;2022-12-29T00:02:16;20.20;;;15.13;;
8331;SDS011;4203;48.144;14.118;2022-12-29T00:04:43;23.57;;;16.87;;
8331;SDS011;4203;48.144;14.118;2022-12-29T00:07:10;19.17;;;15.47;;
8331;SDS011;4203;48.144;14.118;2022-12-29T00:09:37;18.30;;;14.80;;
8331;SDS011;4203;48.144;14.118;2022-12-29T00:12:04;19.47;;;14.80;;
8331;SDS011;4203;48.144;14.118;2022-12-29T00:14:32;24.23;;;16.00;;
8331;SDS011;4203;48.144;14.118;2022-12-29T00:17:17;18.20;;;14.53;;
8331;SDS011;4203;48.144;14.118;2022-12-29T00:19:45;22.00;;;17.47;;
8331;SDS011;4203;48.144;14.118;2022-12-29T00:22:29;21.27;;;18.57;;
8331;SDS011;4203;48.144;14.118;2022-12-29T00:25:14;18.57;;;14.87;;
8331;SDS011;4203;48.144;14.118;2022-12-29T00:27:58;17.63;;;14.07;;
8331;SDS011;4203;48.144;14.118;2022-12-29T00:30:43;20.20;;;15.20;;
8331;SDS011;4203;48.144;14.118;2022-12-29T00:33:29;20.67;;;15.07;;
8331;SDS011;4203;48.144;14.118;2022-12-29T00:36:15;19.10;;;14.97;;
8331;SDS011;4203;48.144;14.118;2022-12-29T00:38:46;18.83;;;14.70;;
8331;SDS011;4203;48.144;14.118;2022-12-29T00:41:33;21.53;;;15.47;;
8331;SDS011;4203;48.144;14.118;2022-12-29T00:44:17;17.57;;;14.30;;
8331;SDS011;4203;48.144;14.118;2022-12-29T00:46:44;19.57;;;15.03;;
8331;SDS011;4203;48.144;14.118;2022-12-29T00:49:13;16.17;;;13.33;;
8331;SDS011;4203;48.144;14.118;2022-12-29T00:52:01;17.03;;;12.70;;
8331;SDS011;4203;48.144;14.118;2022-12-29T00:54:31;17.83;;;13.60;;
8331;SDS011;4203;48.144;14.118;2022-12-29T00:56:59;16.10;;;13.00;;
8331;SDS011;4203;48.144;14.118;2022-12-29T00:59:27;18.40;;;14.20;;
8331;SDS011;4203;48.144;14.118;2022-12-29T01:01:54;16.67;;;12.13;;
8331;SDS011;4203;48.144;14.118;2022-12-29T01:04:23;17.03;;;13.30;;
8331;SDS011;4203;48.144;14.118;2022-12-29T01:06:51;17.40;;;12.53;;
8331;SDS011;4203;48.144;14.118;2022-12-29T01:09:19;16.83;;;12.83;;
8331;SDS011;4203;48.144;14.118;2022-12-29T01:12:04;18.37;;;13.27;;
8331;SDS011;4203;48.144;14.118;2022-12-29T01:14:33;16.60;;;12.63;;
8331;SDS011;4203;48.144;14.118;2022-12-29T01:17:00;15.73;;;12.90;;
8331;SDS011;4203;48.144;14.118;2022-12-29T01:19:29;17.23;;;13.90;;
8331;SDS011;4203;48.144;14.118;2022-12-29T01:21:56;16.80;;;12.13;;
8331;SDS011;4203;48.144;14.118;2022-12-29T01:24:23;15.70;;;12.17;;
8331;SDS011;4203;48.144;14.118;2022-12-29T01:26:51;19.70;;;13.90;;
8331;SDS011;4203;48.144;14.118;2022-12-29T01:29:19;16.10;;;12.77;;
8331;SDS011;4203;48.144;14.118;2022-12-29T01:31:46;16.13;;;12.63;;
8331;SDS011;4203;48.144;14.118;2022-12-29T01:34:14;16.03;;;12.93;;
8331;SDS011;4203;48.144;14.118;2022-12-29T01:36:43;14.33;;;11.80;;
8331;SDS011;4203;48.144;14.118;2022-12-29T01:39:10;16.43;;;12.67;;
8331;SDS011;4203;48.144;14.118;2022-12-29T01:41:37;15.10;;;11.93;;
8331;SDS011;4203;48.144;14.118;2022-12-29T01:47:04;19.70;;;12.73;;
8331;SDS011;4203;48.144;14.118;2022-12-29T01:49:33;19.77;;;13.17;;
8331;SDS011;4203;48.144;14.118;2022-12-29T01:52:03;15.40;;;13.53;;
8331;SDS011;4203;48.144;14.118;2022-12-29T01:54:35;14.90;;;12.67;;
8331;SDS011;4203;48.144;14.118;2022-12-29T01:57:07;15.93;;;12.30;;
8331;SDS011;4203;48.144;14.118;2022-12-29T01:59:38;16.30;;;11.90;;
8331;SDS011;4203;48.144;14.118;2022-12-29T02:02:09;16.03;;;13.40;;
8331;SDS011;4203;48.144;14.118;2022-12-29T02:04:38;13.77;;;12.17;;
8331;SDS011;4203;48.144;14.118;2022-12-29T02:07:12;16.53;;;12.30;;
8331;SDS011;4203;48.144;14.118;2022-12-29T02:09:45;14.53;;;12.43;;
8331;SDS011;4203;48.144;14.118;2022-12-29T02:12:14;14.40;;;12.90;;
8331;SDS011;4203;48.144;14.118;2022-12-29T02:14:42;18.13;;;13.60;;
8331;SDS011;4203;48.144;14.118;2022-12-29T02:17:11;15.07;;;12.20;;
8331;SDS011;4203;48.144;14.118;2022-12-29T02:22:50;13.77;;;11.43;;
8331;SDS011;4203;48.144;14.118;2022-12-29T02:25:43;14.43;;;11.53;;
8331;SDS011;4203;48.144;14.118;2022-12-29T02:31:28;16.30;;;12.23;;
8331;SDS011;4203;48.144;14.118;2022-12-29T02:34:05;13.20;;;11.73;;
8331;SDS011;4203;48.144;14.118;2022-12-29T02:36:42;16.50;;;12.30;;
8331;SDS011;4203;48.144;14.118;2022-12-29T02:39:15;17.73;;;12.13;;
8331;SDS011;4203;48.144;14.118;2022-12-29T02:41:50;13.83;;;12.10;;
8331;SDS011;4203;48.144;14.118;2022-12-29T02:44:25;14.47;;;11.50;;
8331;SDS011;4203;48.144;14.118;2022-12-29T02:47:00;13.77;;;11.67;;
8331;SDS011;4203;48.144;14.118;2022-12-29T02:49:36;14.23;;;12.50;;
8331;SDS011;4203;48.144;14.118;2022-12-29T02:52:10;17.87;;;11.80;;
8331;SDS011;4203;48.144;14.118;2022-12-29T02:54:42;14.10;;;11.47;;
8331;SDS011;4203;48.144;14.118;2022-12-29T02:57:10;11.90;;;10.70;;
8331;SDS011;4203;48.144;14.118;2022-12-29T02:59:38;16.43;;;11.53;;
8331;SDS011;4203;48.144;14.118;2022-12-29T03:05:03;12.30;;;10.50;;
8331;SDS011;4203;48.144;14.118;2022-12-29T03:07:40;15.70;;;11.10;;
8331;SDS011;4203;48.144;14.118;2022-12-29T03:10:19;11.90;;;10.43;;
8331;SDS011;4203;48.144;14.118;2022-12-29T03:13:01;16.13;;;12.10;;
8331;SDS011;4203;48.144;14.118;2022-12-29T03:15:50;11.90;;;10.10;;
8331;SDS011;4203;48.144;14.118;2022-12-29T03:18:43;12.13;;;10.27;;
8331;SDS011;4203;48.144;14.118;2022-12-29T03:21:16;13.40;;;10.23;;
8331;SDS011;4203;48.144;14.118;2022-12-29T03:24:08;14.17;;;10.67;;
8331;SDS011;4203;48.144;14.118;2022-12-29T03:26:37;11.93;;;10.63;;
8331;SDS011;4203;48.144;14.118;2022-12-29T03:29:04;12.70;;;10.00;;
8331;SDS011;4203;48.144;14.118;2022-12-29T03:31:33;12.03;;;10.73;;
8331;SDS011;4203;48.144;14.118;2022-12-29T03:34:03;13.07;;;10.77;;
8331;SDS011;4203;48.144;14.118;2022-12-29T03:36:33;11.47;;;10.03;;
8331;SDS011;4203;48.144;14.118;2022-12-29T03:39:06;11.67;;;10.50;;
8331;SDS011;4203;48.144;14.118;2022-12-29T03:41:37;11.27;;;9.97;;
8331;SDS011;4203;48.144;14.118;2022-12-29T03:44:08;13.90;;;10.20;;
8331;SDS011;4203;48.144;14.118;2022-12-29T03:46:35;13.03;;;10.07;;
8331;SDS011;4203;48.144;14.118;2022-12-29T03:49:04;12.77;;;9.87;;
8331;SDS011;4203;48.144;14.118;2022-12-29T03:51:31;12.13;;;10.43;;
8331;SDS011;4203;48.144;14.118;2022-12-29T03:53:58;11.87;;;10.13;;
8331;SDS011;4203;48.144;14.118;2022-12-29T03:56:25;11.50;;;10.30;;
8331;SDS011;4203;48.144;14.118;2022-12-29T03:58:53;14.00;;;10.33;;
8331;SDS011;4203;48.144;14.118;2022-12-29T04:01:20;13.20;;;10.23;;
8331;SDS011;4203;48.144;14.118;2022-12-29T04:03:47;10.83;;;9.73;;
8331;SDS011;4203;48.144;14.118;2022-12-29T04:06:16;11.57;;;10.17;;
8331;SDS011;4203;48.144;14.118;2022-12-29T04:08:43;10.30;;;9.30;;
8331;SDS011;4203;48.144;14.118;2022-12-29T04:11:10;12.30;;;9.67;;
8331;SDS011;4203;48.144;14.118;2022-12-29T04:13:37;11.80;;;9.87;;
8331;SDS011;4203;48.144;14.118;2022-12-29T04:16:06;11.80;;;10.07;;
8331;SDS011;4203;48.144;14.118;2022-12-29T04:18:33;13.03;;;10.17;;
8331;SDS011;4203;48.144;14.118;2022-12-29T04:21:00;10.73;;;9.23;;
8331;SDS011;4203;48.144;14.118;2022-12-29T04:23:30;11.23;;;10.03;;
8331;SDS011;4203;48.144;14.118;2022-12-29T04:25:59;11.23;;;9.63;;
8331;SDS011;4203;48.144;14.118;2022-12-29T04:28:26;11.03;;;9.87;;
8331;SDS011;4203;48.144;14.118;2022-12-29T04:30:54;12.20;;;10.47;;
8331;SDS011;4203;48.144;14.118;2022-12-29T04:33:21;13.83;;;10.73;;
8331;SDS011;4203;48.144;14.118;2022-12-29T04:35:49;12.57;;;10.17;;
8331;SDS011;4203;48.144;14.118;2022-12-29T04:38:18;12.77;;;10.40;;
8331;SDS011;4203;48.144;14.118;2022-12-29T04:40:47;13.53;;;10.60;;
8331;SDS011;4203;48.144;14.118;2022-12-29T04:43:14;12.77;;;10.33;;
8331;SDS011;4203;48.144;14.118;2022-12-29T04:45:43;14.53;;;10.30;;
8331;SDS011;4203;48.144;14.118;2022-12-29T04:48:11;11.57;;;10.00;;
8331;SDS011;4203;48.144;14.118;2022-12-29T04:50:39;11.50;;;9.77;;
8331;SDS011;4203;48.144;14.118;2022-12-29T04:53:06;11.10;;;10.00;;
8331;SDS011;4203;48.144;14.118;2022-12-29T04:55:33;11.93;;;10.03;;
8331;SDS011;4203;48.144;14.118;2022-12-29T04:58:02;15.93;;;9.93;;
8331;SDS011;4203;48.144;14.118;2022-12-29T05:00:29;14.90;;;10.93;;
8331;SDS011;4203;48.144;14.118;2022-12-29T05:02:56;11.00;;;9.53;;
8331;SDS011;4203;48.144;14.118;2022-12-29T05:05:23;11.83;;;9.60;;
8331;SDS011;4203;48.144;14.118;2022-12-29T05:07:50;11.43;;;9.63;;
8331;SDS011;4203;48.144;14.118;2022-12-29T05:10:17;13.23;;;9.63;;
8331;SDS011;4203;48.144;14.118;2022-12-29T05:12:45;11.57;;;10.10;;
8331;SDS011;4203;48.144;14.118;2022-12-29T05:15:13;11.63;;;9.90;;
8331;SDS011;4203;48.144;14.118;2022-12-29T05:17:40;10.07;;;9.03;;
8331;SDS011;4203;48.144;14.118;2022-12-29T05:20:07;11.77;;;9.83;;
8331;SDS011;4203;48.144;14.118;2022-12-29T05:22:35;13.37;;;10.10;;
8331;SDS011;4203;48.144;14.118;2022-12-29T05:25:03;11.83;;;9.70;;
8331;SDS011;4203;48.144;14.118;2022-12-29T05:27:30;15.93;;;10.17;;
8331;SDS011;4203;48.144;14.118;2022-12-29T05:29:57;13.43;;;9.60;;
8331;SDS011;4203;48.144;14.118;2022-12-29T05:32:26;14.50;;;10.80;;
8331;SDS011;4203;48.144;14.118;2022-12-29T05:34:53;15.70;;;11.00;;
8331;SDS011;4203;48.144;14.118;2022-12-29T05:37:20;12.20;;;10.90;;
8331;SDS011;4203;48.144;14.118;2022-12-29T05:39:47;14.70;;;10.80;;
8331;SDS011;4203;48.144;14.118;2022-12-29T05:42:14;13.80;;;11.20;;
8331;SDS011;4203;48.144;14.118;2022-12-29T05:44:42;14.83;;;11.60;;
8331;SDS011;4203;48.144;14.118;2022-12-29T05:47:09;15.30;;;11.77;;
8331;SDS011;4203;48.144;14.118;2022-12-29T05:49:37;15.23;;;12.57;;
8331;SDS011;4203;48.144;14.118;2022-12-29T05:52:04;17.77;;;13.57;;
8331;SDS011;4203;48.144;14.118;2022-12-29T05:54:31;18.93;;;13.03;;
8331;SDS011;4203;48.144;14.118;2022-12-29T05:56:58;15.90;;;13.30;;
8331;SDS011;4203;48.144;14.118;2022-12-29T05:59:25;18.17;;;12.93;;
8331;SDS011;4203;48.144;14.118;2022-12-29T06:01:53;16.77;;;13.17;;
8331;SDS011;4203;48.144;14.118;2022-12-29T06:04:20;20.40;;;15.47;;
8331;SDS011;4203;48.144;14.118;2022-12-29T06:06:48;19.30;;;12.83;;
8331;SDS011;4203;48.144;14.118;2022-12-29T06:09:15;19.40;;;15.87;;
8331;SDS011;4203;48.144;14.118;2022-12-29T06:11:42;16.37;;;13.80;;
8331;SDS011;4203;48.144;14.118;2022-12-29T06:14:10;16.87;;;12.27;;
8331;SDS011;4203;48.144;14.118;2022-12-29T06:16:37;13.47;;;11.60;;
8331;SDS011;4203;48.144;14.118;2022-12-29T06:19:04;16.40;;;13.17;;
8331;SDS011;4203;48.144;14.118;2022-12-29T06:21:31;13.97;;;11.33;;
8331;SDS011;4203;48.144;14.118;2022-12-29T06:23:59;16.73;;;12.57;;
8331;SDS011;4203;48.144;14.118;2022-12-29T06:26:26;19.27;;;13.70;;
8331;SDS011;4203;48.144;14.118;2022-12-29T06:28:54;79.63;;;41.20;;
8331;SDS011;4203;48.144;14.118;2022-12-29T06:31:22;30.30;;;19.53;;
8331;SDS011;4203;48.144;14.118;2022-12-29T06:33:49;22.73;;;15.90;;
8331;SDS011;4203;48.144;14.118;2022-12-29T06:36:16;23.03;;;15.97;;
8331;SDS011;4203;48.144;14.118;2022-12-29T06:38:43;25.17;;;17.33;;
8331;SDS011;4203;48.144;14.118;2022-12-29T06:41:11;26.50;;;18.70;;
8331;SDS011;4203;48.144;14.118;2022-12-29T06:43:38;22.03;;;13.57;;
8331;SDS011;4203;48.144;14.118;2022-12-29T06:46:05;22.03;;;13.00;;
8331;SDS011;4203;48.144;14.118;2022-12-29T06:48:33;18.00;;;13.27;;
8331;SDS011;4203;48.144;14.118;2022-12-29T06:51:00;23.00;;;17.63;;
8331;SDS011;4203;48.144;14.118;2022-12-29T06:53:27;18.27;;;14.03;;
8331;SDS011;4203;48.144;14.118;2022-12-29T06:55:54;18.43;;;14.53;;
8331;SDS011;4203;48.144;14.118;2022-12-29T06:58:23;17.50;;;13.93;;
8331;SDS011;4203;48.144;14.118;2022-12-29T07:00:50;36.63;;;22.10;;
8331;SDS011;4203;48.144;14.118;2022-12-29T07:03:17;25.87;;;17.63;;
8331;SDS011;4203;48.144;14.118;2022-12-29T07:05:44;24.40;;;16.00;;
8331;SDS011;4203;48.144;14.118;2022-12-29T07:08:11;19.27;;;15.63;;
8331;SDS011;4203;48.144;14.118;2022-12-29T07:10:39;18.03;;;15.23;;
8331;SDS011;4203;48.144;14.118;2022-12-29T07:13:06;18.23;;;14.07;;
8331;SDS011;4203;48.144;14.118;2022-12-29T07:15:35;19.00;;;14.67;;
8331;SDS011;4203;48.144;14.118;2022-12-29T07:18:02;30.07;;;15.30;;
8331;SDS011;4203;48.144;14.118;2022-12-29T07:20:29;26.60;;;15.07;;
8331;SDS011;4203;48.144;14.118;2022-12-29T07:22:57;23.73;;;15.53;;
8331;SDS011;4203;48.144;14.118;2022-12-29T07:25:24;19.80;;;16.17;;
8331;SDS011;4203;48.144;14.118;2022-12-29T07:27:51;22.20;;;15.37;;
8331;SDS011;4203;48.144;14.118;2022-12-29T07:30:18;27.53;;;19.40;;
8331;SDS011;4203;48.144;14.118;2022-12-29T07:32:47;32.63;;;20.00;;
8331;SDS011;4203;48.144;14.118;2022-12-29T07:35:14;33.70;;;23.80;;
8331;SDS011;4203;48.144;14.118;2022-12-29T07:37:41;27.53;;;20.63;;
8331;SDS011;4203;48.144;14.118;2022-12-29T07:40:09;25.67;;;18.83;;
8331;SDS011;4203;48.144;14.118;2022-12-29T07:42:36;26.43;;;18.47;;
8331;SDS011;4203;48.144;14.118;2022-12-29T07:45:04;26.17;;;19.23;;
8331;SDS011;4203;48.144;14.118;2022-12-29T07:47:32;31.67;;;22.43;;
8331;SDS011;4203;48.144;14.118;2022-12-29T07:50:00;37.77;;;25.57;;
8331;SDS011;4203;48.144;14.118;2022-12-29T07:52:27;33.17;;;24.57;;
8331;SDS011;4203;48.144;14.118;2022-12-29T07:54:54;64.80;;;44.07;;
8331;SDS011;4203;48.144;14.118;2022-12-29T07:57:21;39.37;;;29.47;;
8331;SDS011;4203;48.144;14.118;2022-12-29T07:59:49;33.47;;;24.40;;
8331;SDS011;4203;48.144;14.118;2022-12-29T08:02:16;25.13;;;19.27;;
8331;SDS011;4203;48.144;14.118;2022-12-29T08:04:43;72.83;;;41.63;;
8331;SDS011;4203;48.144;14.118;2022-12-29T08:07:11;32.37;;;24.20;;
8331;SDS011;4203;48.144;14.118;2022-12-29T08:09:38;28.90;;;20.53;;
8331;SDS011;4203;48.144;14.118;2022-12-29T08:12:07;22.67;;;17.43;;
8331;SDS011;4203;48.144;14.118;2022-12-29T08:14:35;24.40;;;19.60;;
8331;SDS011;4203;48.144;14.118;2022-12-29T08:17:03;25.53;;;19.00;;
8331;SDS011;4203;48.144;14.118;2022-12-29T08:19:30;26.40;;;19.67;;
8331;SDS011;4203;48.144;14.118;2022-12-29T08:21:57;28.43;;;20.27;;
8331;SDS011;4203;48.144;14.118;2022-12-29T08:24:25;26.47;;;19.67;;
8331;SDS011;4203;48.144;14.118;2022-12-29T08:26:52;24.90;;;19.40;;
8331;SDS011;4203;48.144;14.118;2022-12-29T08:29:20;22.53;;;18.20;;
8331;SDS011;4203;48.144;14.118;2022-12-29T08:31:47;21.37;;;17.67;;
8331;SDS011;4203;48.144;14.118;2022-12-29T08:34:14;21.33;;;17.80;;
8331;SDS011;4203;48.144;14.118;2022-12-29T08:36:41;22.97;;;18.10;;
8331;SDS011;4203;48.144;14.118;2022-12-29T08:39:08;21.27;;;18.17;;
8331;SDS011;4203;48.144;14.118;2022-12-29T08:41:37;25.00;;;17.37;;
8331;SDS011;4203;48.144;14.118;2022-12-29T08:44:04;20.57;;;17.07;;
8331;SDS011;4203;48.144;14.118;2022-12-29T08:46:32;22.40;;;17.60;;
8331;SDS011;4203;48.144;14.118;2022-12-29T08:48:59;26.30;;;19.43;;
8331;SDS011;4203;48.144;14.118;2022-12-29T08:51:26;28.67;;;20.73;;
8331;SDS011;4203;48.144;14.118;2022-12-29T08:53:53;30.90;;;22.30;;
8331;SDS011;4203;48.144;14.118;2022-12-29T08:56:20;28.40;;;22.97;;
8331;SDS011;4203;48.144;14.118;2022-12-29T08:58:50;26.50;;;21.10;;
8331;SDS011;4203;48.144;14.118;2022-12-29T09:01:17;28.40;;;21.93;;
8331;SDS011;4203;48.144;14.118;2022-12-29T09:03:44;56.37;;;33.90;;
8331;SDS011;4203;48.144;14.118;2022-12-29T09:06:13;45.53;;;31.40;;
8331;SDS011;4203;48.144;14.118;2022-12-29T09:08:42;62.60;;;38.23;;
8331;SDS011;4203;48.144;14.118;2022-12-29T09:11:11;36.00;;;25.03;;
8331;SDS011;4203;48.144;14.118;2022-12-29T09:13:40;37.80;;;26.30;;
8331;SDS011;4203;48.144;14.118;2022-12-29T09:16:09;49.47;;;33.27;;
8331;SDS011;4203;48.144;14.118;2022-12-29T09:18:36;29.47;;;21.00;;
8331;SDS011;4203;48.144;14.118;2022-12-29T09:21:04;25.00;;;21.77;;
8331;SDS011;4203;48.144;14.118;2022-12-29T09:23:32;27.00;;;21.30;;
8331;SDS011;4203;48.144;14.118;2022-12-29T09:26:00;29.93;;;21.53;;
8331;SDS011;4203;48.144;14.118;2022-12-29T09:28:27;26.20;;;20.40;;
8331;SDS011;4203;48.144;14.118;2022-12-29T09:30:55;34.43;;;23.87;;
8331;SDS011;4203;48.144;14.118;2022-12-29T09:33:25;29.80;;;22.07;;
8331;SDS011;4203;48.144;14.118;2022-12-29T09:35:53;30.70;;;22.77;;
8331;SDS011;4203;48.144;14.118;2022-12-29T09:38:21;31.97;;;22.50;;
8331;SDS011;4203;48.144;14.118;2022-12-29T09:40:50;30.47;;;22.63;;
8331;SDS011;4203;48.144;14.118;2022-12-29T09:43:42;32.63;;;23.47;;
8331;SDS011;4203;48.144;14.118;2022-12-29T09:46:19;26.57;;;20.13;;
8331;SDS011;4203;48.144;14.118;2022-12-29T09:48:53;29.27;;;21.63;;
8331;SDS011;4203;48.144;14.118;2022-12-29T09:51:29;26.00;;;19.80;;
8331;SDS011;4203;48.144;14.118;2022-12-29T09:54:00;23.43;;;18.47;;
8331;SDS011;4203;48.144;14.118;2022-12-29T09:56:35;120.67;;;59.57;;
8331;SDS011;4203;48.144;14.118;2022-12-29T09:59:04;28.87;;;22.23;;
8331;SDS011;4203;48.144;14.118;2022-12-29T10:01:41;28.53;;;20.93;;
8331;SDS011;4203;48.144;14.118;2022-12-29T10:04:14;20.77;;;16.70;;
8331;SDS011;4203;48.144;14.118;2022-12-29T10:06:42;31.57;;;21.07;;
8331;SDS011;4203;48.144;14.118;2022-12-29T10:09:14;28.23;;;20.67;;
8331;SDS011;4203;48.144;14.118;2022-12-29T10:11:52;33.40;;;21.43;;
8331;SDS011;4203;48.144;14.118;2022-12-29T10:14:45;21.07;;;17.57;;
8331;SDS011;4203;48.144;14.118;2022-12-29T10:17:24;24.93;;;18.70;;
8331;SDS011;4203;48.144;14.118;2022-12-29T10:22:57;24.80;;;17.50;;
8331;SDS011;4203;48.144;14.118;2022-12-29T10:25:38;22.30;;;15.90;;
8331;SDS011;4203;48.144;14.118;2022-12-29T10:28:11;21.80;;;16.40;;
8331;SDS011;4203;48.144;14.118;2022-12-29T10:30:46;17.10;;;15.30;;
8331;SDS011;4203;48.144;14.118;2022-12-29T10:33:15;17.80;;;15.00;;
8331;SDS011;4203;48.144;14.118;2022-12-29T10:35:47;17.30;;;14.97;;
8331;SDS011;4203;48.144;14.118;2022-12-29T10:38:18;18.37;;;14.20;;
8331;SDS011;4203;48.144;14.118;2022-12-29T10:40:53;11.33;;;9.83;;
8331;SDS011;4203;48.144;14.118;2022-12-29T10:43:25;11.63;;;10.27;;
8331;SDS011;4203;48.144;14.118;2022-12-29T10:45:54;13.80;;;10.67;;
8331;SDS011;4203;48.144;14.118;2022-12-29T10:48:25;10.17;;;9.13;;
8331;SDS011;4203;48.144;14.118;2022-12-29T10:50:58;13.80;;;10.77;;
8331;SDS011;4203;48.144;14.118;2022-12-29T10:53:30;47.70;;;24.57;;
8331;SDS011;4203;48.144;14.118;2022-12-29T10:56:01;8.50;;;7.60;;
8331;SDS011;4203;48.144;14.118;2022-12-29T10:58:35;7.17;;;6.10;;
8331;SDS011;4203;48.144;14.118;2022-12-29T11:01:03;7.43;;;6.17;;
8331;SDS011;4203;48.144;14.118;2022-12-29T11:03:40;6.30;;;5.57;;
8331;SDS011;4203;48.144;14.118;2022-12-29T11:06:20;5.37;;;4.90;;
8331;SDS011;4203;48.144;14.118;2022-12-29T11:08:52;6.83;;;4.80;;
8331;SDS011;4203;48.144;14.118;2022-12-29T11:11:22;5.67;;;4.90;;
8331;SDS011;4203;48.144;14.118;2022-12-29T11:13:55;10.93;;;8.35;;
8331;SDS011;4203;48.144;14.118;2022-12-29T11:16:28;6.28;;;5.55;;
8331;SDS011;4203;48.144;14.118;2022-12-29T11:18:57;5.20;;;4.80;;
8331;SDS011;4203;48.144;14.118;2022-12-29T11:21:27;5.27;;;4.77;;
8331;SDS011;4203;48.144;14.118;2022-12-29T11:24:00;5.53;;;4.90;;
8331;SDS011;4203;48.144;14.118;2022-12-29T11:26:28;4.97;;;4.57;;
8331;SDS011;4203;48.144;14.118;2022-12-29T11:31:50;5.32;;;4.57;;
8331;SDS011;4203;48.144;14.118;2022-12-29T11:34:20;5.68;;;4.93;;
8331;SDS011;4203;48.144;14.118;2022-12-29T11:36:52;6.35;;;5.53;;
8331;SDS011;4203;48.144;14.118;2022-12-29T11:39:29;5.30;;;4.80;;
8331;SDS011;4203;48.144;14.118;2022-12-29T11:42:00;5.28;;;4.80;;
8331;SDS011;4203;48.144;14.118;2022-12-29T11:44:30;5.88;;;5.28;;
8331;SDS011;4203;48.144;14.118;2022-12-29T11:47:03;5.97;;;5.47;;
8331;SDS011;4203;48.144;14.118;2022-12-29T11:49:35;11.82;;;8.90;;
8331;SDS011;4203;48.144;14.118;2022-12-29T11:52:03;5.97;;;5.38;;
8331;SDS011;4203;48.144;14.118;2022-12-29T11:54:32;5.55;;;5.05;;
8331;SDS011;4203;48.144;14.118;2022-12-29T11:57:08;5.82;;;5.22;;
8331;SDS011;4203;48.144;14.118;2022-12-29T11:59:41;5.75;;;5.10;;
8331;SDS011;4203;48.144;14.118;2022-12-29T12:02:28;5.07;;;4.57;;
8331;SDS011;4203;48.144;14.118;2022-12-29T12:05:04;5.80;;;5.30;;
8331;SDS011;4203;48.144;14.118;2022-12-29T12:07:41;5.85;;;5.25;;
8331;SDS011;4203;48.144;14.118;2022-12-29T12:10:15;5.88;;;5.28;;
8331;SDS011;4203;48.144;14.118;2022-12-29T12:12:47;5.72;;;5.22;;
8331;SDS011;4203;48.144;14.118;2022-12-29T12:15:20;6.57;;;5.85;;
8331;SDS011;4203;48.144;14.118;2022-12-29T12:17:53;5.93;;;5.32;;
8331;SDS011;4203;48.144;14.118;2022-12-29T12:20:28;7.85;;;6.07;;
8331;SDS011;4203;48.144;14.118;2022-12-29T12:23:10;5.53;;;5.03;;
8331;SDS011;4203;48.144;14.118;2022-12-29T12:25:47;8.18;;;6.10;;
8331;SDS011;4203;48.144;14.118;2022-12-29T12:28:25;6.57;;;5.93;;
8331;SDS011;4203;48.144;14.118;2022-12-29T12:30:56;8.10;;;6.90;;
8331;SDS011;4203;48.144;14.118;2022-12-29T12:33:27;8.18;;;7.35;;
8331;SDS011;4203;48.144;14.118;2022-12-29T12:36:04;8.75;;;7.72;;
8331;SDS011;4203;48.144;14.118;2022-12-29T12:38:49;8.25;;;7.32;;
8331;SDS011;4203;48.144;14.118;2022-12-29T12:41:24;8.57;;;7.78;;
8331;SDS011;4203;48.144;14.118;2022-12-29T12:44:00;10.93;;;8.03;;
8331;SDS011;4203;48.144;14.118;2022-12-29T12:46:46;9.63;;;7.13;;
8331;SDS011;4203;48.144;14.118;2022-12-29T12:49:28;9.93;;;7.05;;
8331;SDS011;4203;48.144;14.118;2022-12-29T12:52:13;9.85;;;7.75;;
8331;SDS011;4203;48.144;14.118;2022-12-29T12:54:55;9.73;;;7.18;;
8331;SDS011;4203;48.144;14.118;2022-12-29T12:57:36;12.88;;;9.73;;
8331;SDS011;4203;48.144;14.118;2022-12-29T13:00:12;8.23;;;7.38;;
8331;SDS011;4203;48.144;14.118;2022-12-29T13:02:46;7.88;;;6.95;;
8331;SDS011;4203;48.144;14.118;2022-12-29T13:05:26;8.20;;;6.57;;
8331;SDS011;4203;48.144;14.118;2022-12-29T13:08:26;8.70;;;5.80;;
8331;SDS011;4203;48.144;14.118;2022-12-29T13:11:10;6.30;;;5.80;;
8331;SDS011;4203;48.144;14.118;2022-12-29T13:13:48;7.50;;;5.80;;
8331;SDS011;4203;48.144;14.118;2022-12-29T13:16:34;6.50;;;5.82;;
8331;SDS011;4203;48.144;14.118;2022-12-29T13:19:09;6.97;;;6.10;;
8331;SDS011;4203;48.144;14.118;2022-12-29T13:21:46;6.07;;;5.47;;
8331;SDS011;4203;48.144;14.118;2022-12-29T13:24:23;5.60;;;5.10;;
8331;SDS011;4203;48.144;14.118;2022-12-29T13:26:59;6.30;;;5.70;;
8331;SDS011;4203;48.144;14.118;2022-12-29T13:29:33;6.75;;;4.97;;
8331;SDS011;4203;48.144;14.118;2022-12-29T13:32:13;6.70;;;5.07;;
8331;SDS011;4203;48.144;14.118;2022-12-29T13:34:53;5.80;;;5.28;;
8331;SDS011;4203;48.144;14.118;2022-12-29T13:37:31;6.63;;;5.70;;
8331;SDS011;4203;48.144;14.118;2022-12-29T13:40:03;6.70;;;5.28;;
8331;SDS011;4203;48.144;14.118;2022-12-29T13:42:40;6.78;;;4.75;;
8331;SDS011;4203;48.144;14.118;2022-12-29T13:45:10;5.18;;;4.68;;
8331;SDS011;4203;48.144;14.118;2022-12-29T13:47:42;7.13;;;5.65;;
8331;SDS011;4203;48.144;14.118;2022-12-29T13:50:17;6.00;;;5.40;;
8331;SDS011;4203;48.144;14.118;2022-12-29T13:52:48;9.43;;;5.55;;
8331;SDS011;4203;48.144;14.118;2022-12-29T13:55:25;5.57;;;5.10;;
8331;SDS011;4203;48.144;14.118;2022-12-29T13:58:00;6.80;;;6.05;;
8331;SDS011;4203;48.144;14.118;2022-12-29T14:00:35;6.18;;;5.57;;
8331;SDS011;4203;48.144;14.118;2022-12-29T14:03:12;7.60;;;6.20;;
8331;SDS011;4203;48.144;14.118;2022-12-29T14:06:02;6.72;;;6.13;;
8331;SDS011;4203;48.144;14.118;2022-12-29T14:08:37;6.45;;;5.85;;
8331;SDS011;4203;48.144;14.118;2022-12-29T14:11:07;10.68;;;7.80;;
8331;SDS011;4203;48.144;14.118;2022-12-29T14:13:40;11.80;;;6.45;;
8331;SDS011;4203;48.144;14.118;2022-12-29T14:16:10;8.25;;;7.45;;
8331;SDS011;4203;48.144;14.118;2022-12-29T14:19:03;7.15;;;6.45;;
8331;SDS011;4203;48.144;14.118;2022-12-29T14:21:36;8.23;;;6.60;;
8331;SDS011;4203;48.144;14.118;2022-12-29T14:26:54;6.63;;;6.13;;
8331;SDS011;4203;48.144;14.118;2022-12-29T14:29:43;8.03;;;6.47;;
8331;SDS011;4203;48.144;14.118;2022-12-29T14:38:13;9.20;;;7.33;;
8331;SDS011;4203;48.144;14.118;2022-12-29T14:40:46;8.53;;;7.70;;
8331;SDS011;4203;48.144;14.118;2022-12-29T14:43:18;8.47;;;7.13;;
8331;SDS011;4203;48.144;14.118;2022-12-29T14:45:56;7.43;;;6.77;;
8331;SDS011;4203;48.144;14.118;2022-12-29T14:48:30;7.27;;;6.57;;
8331;SDS011;4203;48.144;14.118;2022-12-29T14:51:02;9.80;;;7.40;;
8331;SDS011;4203;48.144;14.118;2022-12-29T14:53:45;8.13;;;7.00;;
8331;SDS011;4203;48.144;14.118;2022-12-29T14:56:15;7.40;;;6.70;;
8331;SDS011;4203;48.144;14.118;2022-12-29T14:58:49;6.93;;;6.33;;
8331;SDS011;4203;48.144;14.118;2022-12-29T15:01:22;11.60;;;7.27;;
8331;SDS011;4203;48.144;14.118;2022-12-29T15:03:54;8.70;;;7.87;;
8331;SDS011;4203;48.144;14.118;2022-12-29T15:06:24;13.37;;;10.40;;
8331;SDS011;4203;48.144;14.118;2022-12-29T15:08:58;12.27;;;8.57;;
8331;SDS011;4203;48.144;14.118;2022-12-29T15:11:40;15.10;;;10.80;;
8331;SDS011;4203;48.144;14.118;2022-12-29T15:17:20;8.37;;;7.57;;
8331;SDS011;4203;48.144;14.118;2022-12-29T15:19:51;7.83;;;7.00;;
8331;SDS011;4203;48.144;14.118;2022-12-29T15:22:18;15.23;;;8.20;;
8331;SDS011;4203;48.144;14.118;2022-12-29T15:24:46;10.73;;;9.63;;
8331;SDS011;4203;48.144;14.118;2022-12-29T15:27:17;9.57;;;7.90;;
8331;SDS011;4203;48.144;14.118;2022-12-29T15:29:47;11.27;;;8.77;;
8331;SDS011;4203;48.144;14.118;2022-12-29T15:32:23;9.80;;;8.03;;
8331;SDS011;4203;48.144;14.118;2022-12-29T15:34:52;15.23;;;9.60;;
8331;SDS011;4203;48.144;14.118;2022-12-29T15:37:21;9.20;;;8.27;;
8331;SDS011;4203;48.144;14.118;2022-12-29T15:39:51;10.27;;;8.13;;